sensor_id;sensor_type;location;lat;lon;timestamp;temperature;humidity
64468;DHT22;50853;46.836;16.820;2022-12-10T04:39:27;23.90;61.40
64468;DHT22;50853;46.836;16.820;2022-12-10T04:41:53;23.90;62.60
64468;DHT22;50853;46.836;16.820;2022-12-10T04:44:19;23.90;62.60
64468;DHT22;50853;46.836;16.820;2022-12-10T04:46:46;23.80;62.60
64468;DHT22;50853;46.836;16.820;2022-12-10T04:49:12;23.80;62.00
64468;DHT22;50853;46.836;16.820;2022-12-10T04:51:38;23.80;62.50
64468;DHT22;50853;46.836;16.820;2022-12-10T04:54:05;23.90;62.40
64468;DHT22;50853;46.836;16.820;2022-12-10T04:56:31;23.90;62.40
64468;DHT22;50853;46.836;16.820;2022-12-10T04:58:57;23.90;62.10
64468;DHT22;50853;46.836;16.820;2022-12-10T05:01:23;23.90;62.10
64468;DHT22;50853;46.836;16.820;2022-12-10T05:03:49;23.90;62.10
64468;DHT22;50853;46.836;16.820;2022-12-10T05:06:16;23.90;62.00
64468;DHT22;50853;46.836;16.820;2022-12-10T05:08:42;23.90;61.90
64468;DHT22;50853;46.836;16.820;2022-12-10T05:11:14;23.90;61.60
64468;DHT22;50853;46.836;16.820;2022-12-10T05:13:40;23.90;61.60
64468;DHT22;50853;46.836;16.820;2022-12-10T05:16:07;23.90;61.20
64468;DHT22;50853;46.836;16.820;2022-12-10T05:18:34;23.90;61.20
64468;DHT22;50853;46.836;16.820;2022-12-10T05:21:01;23.90;61.10
64468;DHT22;50853;46.836;16.820;2022-12-10T05:23:27;23.90;60.60
64468;DHT22;50853;46.836;16.820;2022-12-10T05:26:08;23.90;60.90
64468;DHT22;50853;46.836;16.820;2022-12-10T05:28:52;23.90;60.90
64468;DHT22;50853;46.836;16.820;2022-12-10T05:31:24;23.90;60.70
64468;DHT22;50853;46.836;16.820;2022-12-10T05:33:50;23.90;60.60
64468;DHT22;50853;46.836;16.820;2022-12-10T05:36:18;23.90;60.60
64468;DHT22;50853;46.836;16.820;2022-12-10T05:38:44;24.00;60.60
64468;DHT22;50853;46.836;16.820;2022-12-10T05:41:18;24.00;60.60
64468;DHT22;50853;46.836;16.820;2022-12-10T05:43:45;24.00;60.40
64468;DHT22;50853;46.836;16.820;2022-12-10T05:46:13;24.00;60.50
64468;DHT22;50853;46.836;16.820;2022-12-10T05:48:39;24.00;60.40
64468;DHT22;50853;46.836;16.820;2022-12-10T05:51:07;23.90;60.20
64468;DHT22;50853;46.836;16.820;2022-12-10T05:53:33;24.00;60.10
64468;DHT22;50853;46.836;16.820;2022-12-10T05:56:01;24.00;60.00
64468;DHT22;50853;46.836;16.820;2022-12-10T13:45:43;23.60;56.30
64468;DHT22;50853;46.836;16.820;2022-12-10T13:48:25;23.50;60.40
64468;DHT22;50853;46.836;16.820;2022-12-10T13:53:59;23.40;57.40
64468;DHT22;50853;46.836;16.820;2022-12-10T13:59:16;23.50;58.30
64468;DHT22;50853;46.836;16.820;2022-12-10T14:02:03;23.50;57.00
64468;DHT22;50853;46.836;16.820;2022-12-10T14:07:12;23.50;56.70
64468;DHT22;50853;46.836;16.820;2022-12-10T14:09:46;23.50;58.20
64468;DHT22;50853;46.836;16.820;2022-12-10T14:12:17;23.60;61.20
64468;DHT22;50853;46.836;16.820;2022-12-10T14:14:52;23.60;61.00
64468;DHT22;50853;46.836;16.820;2022-12-10T14:17:24;23.60;61.70
64468;DHT22;50853;46.836;16.820;2022-12-10T14:19:55;23.60;62.10
64468;DHT22;50853;46.836;16.820;2022-12-10T14:22:33;23.60;61.90
64468;DHT22;50853;46.836;16.820;2022-12-10T14:25:03;23.60;61.70
64468;DHT22;50853;46.836;16.820;2022-12-10T14:27:30;23.60;61.70
64468;DHT22;50853;46.836;16.820;2022-12-10T14:32:42;23.70;61.00
64468;DHT22;50853;46.836;16.820;2022-12-10T14:35:13;23.80;60.70
64468;DHT22;50853;46.836;16.820;2022-12-10T14:37:42;23.80;60.20
64468;DHT22;50853;46.836;16.820;2022-12-10T14:40:09;23.80;59.80
64468;DHT22;50853;46.836;16.820;2022-12-10T14:42:42;23.70;58.80
64468;DHT22;50853;46.836;16.820;2022-12-10T14:45:13;23.70;58.20
64468;DHT22;50853;46.836;16.820;2022-12-10T14:47:40;23.70;57.50
64468;DHT22;50853;46.836;16.820;2022-12-10T14:50:14;23.70;57.00
64468;DHT22;50853;46.836;16.820;2022-12-10T14:52:44;23.70;56.40
64468;DHT22;50853;46.836;16.820;2022-12-10T14:55:14;23.70;56.10
64468;DHT22;50853;46.836;16.820;2022-12-10T14:57:57;23.70;55.50
64468;DHT22;50853;46.836;16.820;2022-12-10T15:00:24;23.70;54.80
64468;DHT22;50853;46.836;16.820;2022-12-10T15:02:54;23.70;54.70
64468;DHT22;50853;46.836;16.820;2022-12-10T15:05:30;23.70;54.60
64468;DHT22;50853;46.836;16.820;2022-12-10T15:08:05;23.70;54.50
64468;DHT22;50853;46.836;16.820;2022-12-10T15:10:40;23.80;54.90
64468;DHT22;50853;46.836;16.820;2022-12-10T15:13:13;23.80;54.30
64468;DHT22;50853;46.836;16.820;2022-12-10T15:15:43;23.80;54.30
64468;DHT22;50853;46.836;16.820;2022-12-10T15:18:16;23.70;54.20
64468;DHT22;50853;46.836;16.820;2022-12-10T15:20:51;23.80;54.30
64468;DHT22;50853;46.836;16.820;2022-12-10T15:30:54;23.80;53.60
64468;DHT22;50853;46.836;16.820;2022-12-10T15:33:34;23.70;54.70
64468;DHT22;50853;46.836;16.820;2022-12-10T15:36:02;23.80;53.50
64468;DHT22;50853;46.836;16.820;2022-12-10T15:38:28;23.80;53.60
64468;DHT22;50853;46.836;16.820;2022-12-10T15:41:24;23.80;53.30
64468;DHT22;50853;46.836;16.820;2022-12-10T15:44:05;23.80;53.30
64468;DHT22;50853;46.836;16.820;2022-12-10T15:46:31;23.80;53.90
64468;DHT22;50853;46.836;16.820;2022-12-10T15:48:57;23.80;53.10
64468;DHT22;50853;46.836;16.820;2022-12-10T15:51:24;23.80;52.70
64468;DHT22;50853;46.836;16.820;2022-12-10T15:53:51;23.80;52.70
64468;DHT22;50853;46.836;16.820;2022-12-10T15:56:17;23.80;52.20
64468;DHT22;50853;46.836;16.820;2022-12-10T15:58:42;23.90;52.10
64468;DHT22;50853;46.836;16.820;2022-12-10T16:01:13;23.90;52.00
64468;DHT22;50853;46.836;16.820;2022-12-10T16:03:39;23.90;51.70
64468;DHT22;50853;46.836;16.820;2022-12-10T16:06:06;23.80;51.60
64468;DHT22;50853;46.836;16.820;2022-12-10T16:08:32;23.80;51.80
64468;DHT22;50853;46.836;16.820;2022-12-10T16:11:10;23.70;51.30
64468;DHT22;50853;46.836;16.820;2022-12-10T16:13:38;23.70;51.60
64468;DHT22;50853;46.836;16.820;2022-12-10T16:16:10;23.70;51.50
64468;DHT22;50853;46.836;16.820;2022-12-10T16:18:36;23.70;51.20
64468;DHT22;50853;46.836;16.820;2022-12-10T16:21:06;23.80;51.60
64468;DHT22;50853;46.836;16.820;2022-12-10T16:23:32;23.70;51.60
64468;DHT22;50853;46.836;16.820;2022-12-10T16:25:59;23.70;51.60
64468;DHT22;50853;46.836;16.820;2022-12-10T16:28:25;23.70;51.70
64468;DHT22;50853;46.836;16.820;2022-12-10T16:30:53;23.70;51.70
64468;DHT22;50853;46.836;16.820;2022-12-10T16:33:20;23.70;52.00
64468;DHT22;50853;46.836;16.820;2022-12-10T16:35:47;23.70;52.10
64468;DHT22;50853;46.836;16.820;2022-12-10T16:38:13;23.70;52.20
64468;DHT22;50853;46.836;16.820;2022-12-10T16:40:41;23.70;52.10
64468;DHT22;50853;46.836;16.820;2022-12-10T16:43:19;23.70;52.60
64468;DHT22;50853;46.836;16.820;2022-12-10T16:45:46;23.70;52.60
64468;DHT22;50853;46.836;16.820;2022-12-10T16:48:12;23.80;52.70
64468;DHT22;50853;46.836;16.820;2022-12-10T16:50:38;23.80;52.90
64468;DHT22;50853;46.836;16.820;2022-12-10T16:55:40;23.70;52.90
64468;DHT22;50853;46.836;16.820;2022-12-10T16:58:09;23.70;53.00
64468;DHT22;50853;46.836;16.820;2022-12-10T17:00:35;23.70;52.80
64468;DHT22;50853;46.836;16.820;2022-12-10T17:03:01;23.80;53.20
64468;DHT22;50853;46.836;16.820;2022-12-10T17:05:39;23.80;53.00
64468;DHT22;50853;46.836;16.820;2022-12-10T17:08:07;23.80;52.90
64468;DHT22;50853;46.836;16.820;2022-12-10T17:10:33;23.80;53.10
64468;DHT22;50853;46.836;16.820;2022-12-10T17:13:18;23.80;53.20
64468;DHT22;50853;46.836;16.820;2022-12-10T17:15:47;23.80;53.60
64468;DHT22;50853;46.836;16.820;2022-12-10T17:18:16;23.80;53.30
64468;DHT22;50853;46.836;16.820;2022-12-10T17:20:43;23.80;53.50
64468;DHT22;50853;46.836;16.820;2022-12-10T17:23:10;23.80;53.30
64468;DHT22;50853;46.836;16.820;2022-12-10T17:25:37;23.80;53.40
64468;DHT22;50853;46.836;16.820;2022-12-10T17:28:03;23.80;53.70
64468;DHT22;50853;46.836;16.820;2022-12-10T17:30:29;23.80;53.60
64468;DHT22;50853;46.836;16.820;2022-12-10T17:32:55;23.80;53.70
64468;DHT22;50853;46.836;16.820;2022-12-10T17:35:21;23.80;54.00
64468;DHT22;50853;46.836;16.820;2022-12-10T17:37:47;23.80;53.80
64468;DHT22;50853;46.836;16.820;2022-12-10T17:40:17;23.80;53.90
64468;DHT22;50853;46.836;16.820;2022-12-10T17:42:44;23.80;53.90
64468;DHT22;50853;46.836;16.820;2022-12-10T17:45:15;23.80;53.80
64468;DHT22;50853;46.836;16.820;2022-12-10T17:47:41;23.80;53.90
64468;DHT22;50853;46.836;16.820;2022-12-10T17:50:32;23.80;53.90
64468;DHT22;50853;46.836;16.820;2022-12-10T17:53:03;23.80;55.20
64468;DHT22;50853;46.836;16.820;2022-12-10T17:55:29;23.90;57.70
64468;DHT22;50853;46.836;16.820;2022-12-10T17:57:56;24.10;60.00
64468;DHT22;50853;46.836;16.820;2022-12-10T18:00:26;24.30;61.30
64468;DHT22;50853;46.836;16.820;2022-12-10T18:02:52;24.40;61.00
64468;DHT22;50853;46.836;16.820;2022-12-10T18:05:18;24.30;61.40
64468;DHT22;50853;46.836;16.820;2022-12-10T18:07:45;24.30;61.80
64468;DHT22;50853;46.836;16.820;2022-12-10T18:10:23;24.20;61.90
64468;DHT22;50853;46.836;16.820;2022-12-10T18:12:49;24.20;62.30
64468;DHT22;50853;46.836;16.820;2022-12-10T18:15:16;24.20;62.10
64468;DHT22;50853;46.836;16.820;2022-12-10T18:17:43;24.20;62.10
64468;DHT22;50853;46.836;16.820;2022-12-10T18:20:26;24.20;61.90
64468;DHT22;50853;46.836;16.820;2022-12-10T18:22:53;24.30;61.70
64468;DHT22;50853;46.836;16.820;2022-12-10T18:25:19;24.20;61.30
64468;DHT22;50853;46.836;16.820;2022-12-10T18:27:46;24.20;61.30
64468;DHT22;50853;46.836;16.820;2022-12-10T18:30:21;24.10;60.80
64468;DHT22;50853;46.836;16.820;2022-12-10T18:32:47;24.10;61.00
64468;DHT22;50853;46.836;16.820;2022-12-10T18:35:13;24.10;60.40
64468;DHT22;50853;46.836;16.820;2022-12-10T18:37:40;24.10;60.50
64468;DHT22;50853;46.836;16.820;2022-12-10T18:40:10;24.10;60.60
64468;DHT22;50853;46.836;16.820;2022-12-10T18:42:37;24.10;60.40
64468;DHT22;50853;46.836;16.820;2022-12-10T18:45:03;24.10;60.40
64468;DHT22;50853;46.836;16.820;2022-12-10T18:47:29;24.10;60.60
64468;DHT22;50853;46.836;16.820;2022-12-10T18:49:55;24.10;60.40
64468;DHT22;50853;46.836;16.820;2022-12-10T18:52:20;24.10;60.60
64468;DHT22;50853;46.836;16.820;2022-12-10T18:54:46;24.10;60.60
64468;DHT22;50853;46.836;16.820;2022-12-10T18:57:13;24.10;60.60
64468;DHT22;50853;46.836;16.820;2022-12-10T18:59:39;24.10;60.50
64468;DHT22;50853;46.836;16.820;2022-12-10T19:02:06;24.10;60.50
64468;DHT22;50853;46.836;16.820;2022-12-10T19:04:31;24.00;60.40
64468;DHT22;50853;46.836;16.820;2022-12-10T19:06:57;24.00;60.30
64468;DHT22;50853;46.836;16.820;2022-12-10T19:09:23;24.10;60.20
64468;DHT22;50853;46.836;16.820;2022-12-10T19:11:49;24.10;60.50
64468;DHT22;50853;46.836;16.820;2022-12-10T19:14:20;24.10;60.40
64468;DHT22;50853;46.836;16.820;2022-12-10T19:16:48;24.10;60.20
64468;DHT22;50853;46.836;16.820;2022-12-10T19:19:15;24.10;60.40
64468;DHT22;50853;46.836;16.820;2022-12-10T19:21:41;24.10;60.20
64468;DHT22;50853;46.836;16.820;2022-12-10T19:24:07;24.20;60.90
64468;DHT22;50853;46.836;16.820;2022-12-10T19:26:35;24.20;61.10
64468;DHT22;50853;46.836;16.820;2022-12-10T19:29:12;24.20;60.70
64468;DHT22;50853;46.836;16.820;2022-12-10T19:31:39;24.10;60.60
64468;DHT22;50853;46.836;16.820;2022-12-10T19:34:04;24.10;60.70
64468;DHT22;50853;46.836;16.820;2022-12-10T19:36:30;24.10;60.60
64468;DHT22;50853;46.836;16.820;2022-12-10T19:38:58;24.10;60.50
64468;DHT22;50853;46.836;16.820;2022-12-10T19:41:24;24.10;60.30
64468;DHT22;50853;46.836;16.820;2022-12-10T19:43:50;24.00;60.30
64468;DHT22;50853;46.836;16.820;2022-12-10T19:46:24;24.10;60.10
64468;DHT22;50853;46.836;16.820;2022-12-10T19:48:51;24.10;60.10
64468;DHT22;50853;46.836;16.820;2022-12-10T19:51:17;24.10;60.20
64468;DHT22;50853;46.836;16.820;2022-12-10T19:53:44;24.00;60.00
64468;DHT22;50853;46.836;16.820;2022-12-10T19:56:21;24.00;60.00
64468;DHT22;50853;46.836;16.820;2022-12-10T19:58:53;24.10;60.00
64468;DHT22;50853;46.836;16.820;2022-12-10T20:01:19;24.10;59.70
64468;DHT22;50853;46.836;16.820;2022-12-10T20:03:45;24.00;59.50
64468;DHT22;50853;46.836;16.820;2022-12-10T20:06:18;24.00;59.20
64468;DHT22;50853;46.836;16.820;2022-12-10T20:08:47;24.00;59.30
64468;DHT22;50853;46.836;16.820;2022-12-10T20:11:13;24.00;59.20
64468;DHT22;50853;46.836;16.820;2022-12-10T20:13:39;24.00;59.10
64468;DHT22;50853;46.836;16.820;2022-12-10T20:16:20;24.10;59.30
64468;DHT22;50853;46.836;16.820;2022-12-10T20:18:47;24.10;59.40
64468;DHT22;50853;46.836;16.820;2022-12-10T20:21:13;24.10;59.10
64468;DHT22;50853;46.836;16.820;2022-12-10T20:23:40;24.20;60.70
64468;DHT22;50853;46.836;16.820;2022-12-10T20:26:34;24.30;61.60
64468;DHT22;50853;46.836;16.820;2022-12-10T20:29:01;24.30;61.40
64468;DHT22;50853;46.836;16.820;2022-12-10T20:31:27;24.30;62.10
64468;DHT22;50853;46.836;16.820;2022-12-10T20:33:54;24.30;62.00
64468;DHT22;50853;46.836;16.820;2022-12-10T20:36:23;24.30;62.20
64468;DHT22;50853;46.836;16.820;2022-12-10T20:38:49;24.30;62.10
64468;DHT22;50853;46.836;16.820;2022-12-10T20:41:17;24.30;61.70
64468;DHT22;50853;46.836;16.820;2022-12-10T20:43:44;24.30;61.80
64468;DHT22;50853;46.836;16.820;2022-12-10T20:46:18;24.20;61.50
64468;DHT22;50853;46.836;16.820;2022-12-10T20:48:47;24.20;61.50
64468;DHT22;50853;46.836;16.820;2022-12-10T20:51:13;24.20;61.60
